Terminal Aerodrome Forecast
Issued by NWS

Home | Current Version | Previous Version | Text Only | Print | Product List | Glossary On
Versions: 1 2 3 4 5 6 7 8 9 10 11 12 13 14 15 16
000
FTUS45 KLKN 191742
TAFWMC
TAF
KWMC 191742Z 1918/2018 31007KT P6SM VCSH OVC010
     FM192000 36011G18KT P6SM VCSH SCT010 BKN035 OVC050
     FM200200 35008KT P6SM VCSH BKN050 OVC100
     FM201200 27004KT P6SM SCT050=

USA.gov is the U.S. government's official web portal to all federal, state and local government web resources and services.